الصفحة الرئيسية
METAR-TAF:

METAR-TAF

مطار :

غروزني, روسيا

دائرة عرض: 43-23-18N, خط طول: 045-41-59E, ارتفاع: 167 متر

مراقبة الطقس الحالي

تاريخ ووقت الإصدار 16 دقيقة قبل الساعة 19:30UTC
ريح 6 عقدة من الشمال
درجة الحرارة 7°درجة مئوية
الرطوبة 87%
ضغط 1016 hPa
الرؤية: 9000 متر

METAR: URMG 041930Z 01003MPS 9000 NSC 07/05 Q1016 R26/090070 NOSIG RMK QFE747/0996

زمن: 22:46 (19:46 UTC)

توقعات

تاريخ ووقت الإصدار 2ساعات و 46 دقيقة قبل الساعة 17:00UTC
التوقعات صالحة من04 الساعة 18 UTC إلى 05 الساعة 03 UTC
ريح 6 عقدة من الغرب/الشمال الغربي تتزايد حتى 16 عقدة
الرؤية: 6000 متر
غيوم مفككة على ارتفاع 1600 قدم
مؤقت
من 04 الساعة 18 UTC إلى 05 الساعة 03 UTC
الرؤية: 0300 متر
ملبد بالغيوم على ارتفاع 200 قدم
ضباب,

TAF: URMG 041700Z 0418/0503 30003G08MPS 6000 BKN016 TEMPO 0418/0503 0300 FG OVC002

أرصاد الطقس والتوقعات من أكثر من 4000 مطار (تقارير الطقس للمطار METAR والتنبؤ بالطقس بالمطارTAF).

المحطات المتاحة هي النقط الصفراء والحمراء على الخريطة.

حرك المؤشر فوق النقطة لمعرفة اسم المحطة.

ثم انقر لمعرفة أرصاد وتوقعات الطقس.

لتغيير الخارطة: اضغط على الأزرار الخضراء مع رمز الصليب الأسود للتكبير. على الزر الأخضر مع شرطة للتصغير، أو على الأسهم الخضراء للخرائط المجاورة.


METAR-TAF: